Time;durP1;ratioP1;P1;durP2;ratioP2;P2;SDS_P1;SDS_P2;PMS_P1;PMS_P2;Temp;Humidity;BMP_temperature;BMP_pressure;BME280_temperature;BME280_humidity;BME280_pressure;Samples;Min_cycle;Max_cycle;Signal;HPM_P1;HPM_P2
2024/01/04 00:00:25;;;;;;;1999.90;999.90;;;5.20;99.90;;;;;;5025505;28;20060;-75
2024/01/04 00:02:51;;;;;;;1999.90;999.90;;;5.20;99.90;;;;;;5028471;28;20166;-75
2024/01/04 00:05:17;;;;;;;1999.90;999.90;;;5.10;99.90;;;;;;5040703;28;20135;-74
2024/01/04 00:07:43;;;;;;;1999.90;999.90;;;5.00;99.90;;;;;;5030934;28;20036;-75
2024/01/04 00:10:09;;;;;;;1999.90;999.90;;;5.00;99.90;;;;;;5023916;28;20434;-75
2024/01/04 00:12:35;;;;;;;1999.90;999.90;;;5.00;99.90;;;;;;5022806;28;20045;-75
2024/01/04 00:15:03;;;;;;;1999.90;999.90;;;4.90;99.90;;;;;;5028170;28;20475;-74
2024/01/04 00:17:29;;;;;;;1999.90;999.90;;;4.90;99.90;;;;;;5028279;28;20044;-75
2024/01/04 00:19:55;;;;;;;1999.90;999.90;;;4.90;99.90;;;;;;5024030;28;20037;-76
2024/01/04 00:22:21;;;;;;;1999.90;999.90;;;4.80;99.90;;;;;;5028586;28;20037;-74
2024/01/04 00:24:46;;;;;;;1999.90;999.90;;;4.80;99.90;;;;;;5026780;28;20049;-75
2024/01/04 00:27:12;;;;;;;1999.90;999.90;;;4.80;99.90;;;;;;5028292;28;20040;-76
2024/01/04 00:29:38;;;;;;;1999.90;999.90;;;4.90;99.90;;;;;;5027678;28;20091;-76
2024/01/04 00:32:04;;;;;;;1999.90;999.90;;;4.90;99.90;;;;;;5029591;28;20018;-75
2024/01/04 00:34:29;;;;;;;1999.90;999.90;;;4.90;99.90;;;;;;5021668;28;20030;-75
2024/01/04 00:36:57;;;;;;;1999.90;999.90;;;4.90;99.90;;;;;;5032669;28;20029;-76
2024/01/04 00:39:24;;;;;;;1999.90;999.90;;;4.90;99.90;;;;;;5026482;28;20060;-73
2024/01/04 00:41:51;;;;;;;1999.90;999.90;;;5.00;99.90;;;;;;5034161;28;20040;-75
2024/01/04 00:44:17;;;;;;;1999.90;999.90;;;5.30;99.90;;;;;;5039339;28;20036;-75
2024/01/04 00:46:43;;;;;;;1999.90;999.90;;;5.40;99.90;;;;;;5035000;28;20061;-75
2024/01/04 00:49:09;;;;;;;1999.90;999.90;;;5.40;99.90;;;;;;5034579;28;20057;-75
2024/01/04 00:51:34;;;;;;;1999.90;999.90;;;5.60;99.90;;;;;;5031336;28;20026;-75
2024/01/04 00:54:01;;;;;;;1999.90;999.90;;;5.60;99.90;;;;;;5028012;28;20069;-75
2024/01/04 00:56:36;;;;;;;1999.90;999.90;;;5.70;99.90;;;;;;5027059;28;20057;-76
2024/01/04 00:59:02;;;;;;;1999.90;999.90;;;5.90;96.60;;;;;;5029378;28;20627;-78
2024/01/04 01:01:29;;;;;;;1999.90;999.90;;;5.80;94.20;;;;;;5029207;28;20435;-74
2024/01/04 01:03:54;;;;;;;1999.90;999.90;;;5.80;93.20;;;;;;5031999;28;20394;-75
2024/01/04 01:06:20;;;;;;;1999.90;999.90;;;5.80;92.60;;;;;;5033371;28;20061;-77
2024/01/04 01:08:46;;;;;;;1999.90;999.90;;;5.90;92.30;;;;;;5030867;28;20036;-74
2024/01/04 01:11:14;;;;;;;1999.90;999.90;;;6.00;91.40;;;;;;5028697;28;20387;-75
2024/01/04 01:13:48;;;;;;;1999.90;999.90;;;5.90;91.20;;;;;;5033523;28;20041;-75
2024/01/04 01:16:15;;;;;;;1999.90;999.90;;;5.80;91.10;;;;;;5029244;28;20042;-75
2024/01/04 01:18:40;;;;;;;1999.90;999.90;;;5.90;90.50;;;;;;5035355;28;20026;-74
2024/01/04 01:21:06;;;;;;;1999.90;999.90;;;5.90;90.20;;;;;;5029298;28;20124;-76
2024/01/04 01:23:32;;;;;;;1999.90;999.90;;;5.80;90.00;;;;;;5028176;28;20096;-76
2024/01/04 01:25:58;;;;;;;1999.90;999.90;;;6.00;87.60;;;;;;5033119;28;20030;-76
2024/01/04 01:28:23;;;;;;;1999.90;999.90;;;6.10;86.90;;;;;;5029588;28;20041;-75
2024/01/04 01:30:50;;;;;;;1999.90;999.90;;;6.10;87.20;;;;;;5031232;28;20025;-76
2024/01/04 01:33:16;;;;;;;1999.90;999.90;;;6.10;86.50;;;;;;5030106;28;20526;-75
2024/01/04 01:35:41;;;;;;;1999.90;999.90;;;6.20;86.10;;;;;;5030494;28;20072;-75
2024/01/04 01:38:07;;;;;;;1999.90;999.90;;;6.20;85.80;;;;;;5018922;28;20553;-76
2024/01/04 01:40:33;;;;;;;1999.90;999.90;;;6.10;85.70;;;;;;5030782;28;20037;-77
2024/01/04 01:43:00;;;;;;;1999.90;999.90;;;6.20;85.00;;;;;;5033601;28;20032;-76
2024/01/04 01:45:26;;;;;;;1999.90;999.90;;;6.30;84.60;;;;;;5030191;28;20438;-75
2024/01/04 01:47:52;;;;;;;1999.90;999.90;;;6.30;84.40;;;;;;5028409;28;20033;-75
2024/01/04 01:50:21;;;;;;;1999.90;999.90;;;6.40;83.60;;;;;;5033223;28;20025;-75
2024/01/04 01:52:51;;;;;;;1999.90;999.90;;;6.20;84.90;;;;;;5030067;28;20091;-75
2024/01/04 01:55:19;;;;;;;1999.90;999.90;;;6.20;84.50;;;;;;5033944;28;20144;-75
2024/01/04 01:57:45;;;;;;;1999.90;999.90;;;6.20;84.50;;;;;;5012728;28;20049;-75
2024/01/04 02:00:13;;;;;;;1999.90;999.90;;;6.30;84.00;;;;;;5028146;28;20500;-75
2024/01/04 02:02:38;;;;;;;1999.90;999.90;;;6.30;84.00;;;;;;5032632;28;20038;-75
2024/01/04 02:05:04;;;;;;;1999.90;999.90;;;6.30;83.80;;;;;;5028858;28;20175;-76
2024/01/04 02:07:30;;;;;;;1999.90;999.90;;;6.30;83.80;;;;;;5031556;28;20499;-73
2024/01/04 02:09:56;;;;;;;1999.90;999.90;;;6.30;83.30;;;;;;5031752;28;20053;-74
2024/01/04 02:12:22;;;;;;;1999.90;999.90;;;6.20;83.50;;;;;;5030750;28;20399;-75
2024/01/04 02:14:52;;;;;;;1999.90;999.90;;;6.20;83.20;;;;;;5036205;28;20029;-78
2024/01/04 02:17:41;;;;;;;1999.90;999.90;;;6.40;82.10;;;;;;5031210;28;20025;-77
2024/01/04 02:20:07;;;;;;;1999.90;999.90;;;6.30;82.80;;;;;;5028248;28;20187;-76
2024/01/04 02:22:41;;;;;;;1999.90;999.90;;;6.30;82.90;;;;;;5027994;28;20038;-77
2024/01/04 02:25:07;;;;;;;1999.90;999.90;;;6.30;83.00;;;;;;5031118;28;21204;-76
2024/01/04 02:27:33;;;;;;;1999.90;999.90;;;6.20;84.40;;;;;;5028868;28;20094;-76
2024/01/04 02:29:59;;;;;;;1999.90;999.90;;;6.30;84.00;;;;;;5031584;28;20029;-76
2024/01/04 02:32:24;;;;;;;1999.90;999.90;;;6.20;84.00;;;;;;5030910;28;20053;-75
2024/01/04 02:34:50;;;;;;;1999.90;999.90;;;6.20;83.70;;;;;;5029634;28;20017;-75
2024/01/04 02:37:16;;;;;;;1999.90;999.90;;;6.20;84.00;;;;;;5029718;28;20038;-76
2024/01/04 02:39:41;;;;;;;1999.90;999.90;;;6.20;84.20;;;;;;5029818;28;20054;-76
2024/01/04 02:42:07;;;;;;;1999.90;999.90;;;6.20;84.10;;;;;;5029100;28;20041;-76
2024/01/04 02:44:32;;;;;;;1999.90;999.90;;;6.10;84.60;;;;;;5030616;28;20032;-77
2024/01/04 02:46:58;;;;;;;1999.90;999.90;;;6.10;84.90;;;;;;5028550;28;20026;-75
2024/01/04 02:49:24;;;;;;;1999.90;999.90;;;6.20;85.20;;;;;;5026728;28;20033;-75
2024/01/04 02:51:49;;;;;;;1999.90;999.90;;;6.10;85.60;;;;;;5031268;28;20033;-75
2024/01/04 02:54:15;;;;;;;1999.90;999.90;;;6.10;85.70;;;;;;5029653;28;20037;-75
2024/01/04 02:56:41;;;;;;;1999.90;999.90;;;6.00;86.10;;;;;;5028803;28;20041;-75
2024/01/04 02:59:07;;;;;;;1999.90;999.90;;;6.00;85.90;;;;;;5027990;28;20170;-77
2024/01/04 03:01:33;;;;;;;1999.90;999.90;;;5.90;86.60;;;;;;5026474;28;20029;-75
2024/01/04 03:03:59;;;;;;;1999.90;999.90;;;6.10;86.60;;;;;;5031135;28;20029;-77
2024/01/04 03:06:25;;;;;;;1999.90;999.90;;;6.20;85.90;;;;;;5029648;28;20057;-77
2024/01/04 03:08:51;;;;;;;1999.90;999.90;;;6.10;86.60;;;;;;5030561;28;20025;-76
2024/01/04 03:11:17;;;;;;;1999.90;999.90;;;6.20;86.30;;;;;;5029809;28;20044;-76
2024/01/04 03:13:43;;;;;;;1999.90;999.90;;;6.10;86.10;;;;;;5028254;28;20033;-77
2024/01/04 03:16:09;;;;;;;1999.90;999.90;;;6.20;85.80;;;;;;5027253;28;20029;-76
2024/01/04 03:18:34;;;;;;;1999.90;999.90;;;6.20;85.70;;;;;;5029459;28;20036;-75
2024/01/04 03:21:02;;;;;;;1999.90;999.90;;;6.20;86.30;;;;;;5028652;28;20041;-76
2024/01/04 03:23:28;;;;;;;1999.90;999.90;;;6.20;86.10;;;;;;5028281;28;20144;-75
2024/01/04 03:25:54;;;;;;;1999.90;999.90;;;6.20;86.60;;;;;;5035010;28;20546;-77
2024/01/04 03:28:20;;;;;;;1999.90;999.90;;;6.10;87.30;;;;;;5026941;28;20653;-77
2024/01/04 03:30:46;;;;;;;1999.90;999.90;;;6.10;87.00;;;;;;5027420;28;20036;-75
2024/01/04 03:33:11;;;;;;;1999.90;999.90;;;6.10;87.40;;;;;;5028169;28;20466;-78
2024/01/04 03:35:37;;;;;;;1999.90;999.90;;;6.10;87.50;;;;;;5024628;28;20455;-76
2024/01/04 03:38:03;;;;;;;1999.90;999.90;;;6.10;87.00;;;;;;5027438;28;20380;-77
2024/01/04 03:40:29;;;;;;;1999.90;999.90;;;6.10;87.40;;;;;;5020262;28;20075;-74
2024/01/04 03:42:56;;;;;;;1999.90;999.90;;;6.10;87.20;;;;;;5026307;28;20475;-76
2024/01/04 03:45:21;;;;;;;1999.90;999.90;;;6.00;87.60;;;;;;5026364;28;20037;-74
2024/01/04 03:47:51;;;;;;;1999.90;999.90;;;6.00;87.10;;;;;;5027938;28;20030;-75
2024/01/04 03:50:16;;;;;;;1999.90;999.90;;;6.10;87.40;;;;;;5022133;28;20128;-76
2024/01/04 03:52:42;;;;;;;1999.90;999.90;;;6.10;86.60;;;;;;5024161;28;20033;-76
2024/01/04 03:55:08;;;;;;;1999.90;999.90;;;6.20;86.10;;;;;;5023330;28;20511;-76
2024/01/04 03:57:33;;;;;;;1999.90;999.90;;;6.20;86.90;;;;;;5027684;28;20037;-75
2024/01/04 04:00:01;;;;;;;1999.90;999.90;;;6.10;87.40;;;;;;5030390;28;20040;-77
2024/01/04 04:02:26;;;;;;;1999.90;999.90;;;6.10;88.30;;;;;;5021731;28;20041;-75
2024/01/04 04:04:52;;;;;;;1999.90;999.90;;;6.00;89.60;;;;;;5029184;28;20089;-76
2024/01/04 04:07:18;;;;;;;1999.90;999.90;;;5.90;91.10;;;;;;5028219;28;20048;-78
2024/01/04 04:09:44;;;;;;;1999.90;999.90;;;5.80;91.60;;;;;;5023031;28;20034;-76
2024/01/04 04:12:09;;;;;;;1999.90;999.90;;;5.80;91.20;;;;;;5027605;28;20559;-76
2024/01/04 04:14:35;;;;;;;1999.90;999.90;;;5.70;92.10;;;;;;5026108;28;20025;-75
2024/01/04 04:17:01;;;;;;;1999.90;999.90;;;5.50;93.60;;;;;;5029970;28;20065;-76
2024/01/04 04:19:28;;;;;;;1999.90;999.90;;;5.60;92.70;;;;;;5025013;28;20038;-76
2024/01/04 04:21:53;;;;;;;1999.90;999.90;;;5.50;94.20;;;;;;5023693;28;20025;-76
2024/01/04 04:24:19;;;;;;;1999.90;999.90;;;5.30;94.30;;;;;;5021699;28;20036;-75
2024/01/04 04:26:45;;;;;;;1999.90;999.90;;;5.40;94.50;;;;;;5025545;28;20045;-75
2024/01/04 04:29:10;;;;;;;1999.90;999.90;;;5.40;93.80;;;;;;5026444;28;20037;-75
2024/01/04 04:31:36;;;;;;;1999.90;999.90;;;5.50;93.60;;;;;;5027891;28;20041;-78
2024/01/04 04:34:02;;;;;;;1999.90;999.90;;;5.50;93.70;;;;;;5028786;28;20025;-76
2024/01/04 04:36:27;;;;;;;1999.90;999.90;;;5.60;93.80;;;;;;5031215;28;20099;-74
2024/01/04 04:38:53;;;;;;;1999.90;999.90;;;5.60;93.10;;;;;;5023031;28;20098;-75
2024/01/04 04:41:19;;;;;;;1999.90;999.90;;;5.60;92.40;;;;;;5025437;28;20049;-77
2024/01/04 04:43:44;;;;;;;1999.90;999.90;;;5.60;93.60;;;;;;5023264;28;20447;-76
2024/01/04 04:46:12;;;;;;;1999.90;999.90;;;5.60;93.30;;;;;;5028791;28;20030;-77
2024/01/04 04:48:40;;;;;;;1999.90;999.90;;;5.60;93.50;;;;;;5006633;28;20037;-77
2024/01/04 04:51:06;;;;;;;1999.90;999.90;;;5.60;92.10;;;;;;5027560;28;20086;-76
2024/01/04 04:53:32;;;;;;;1999.90;999.90;;;5.70;92.20;;;;;;5026799;28;20033;-77
2024/01/04 04:55:57;;;;;;;1999.90;999.90;;;5.80;91.80;;;;;;5024505;28;20029;-77
2024/01/04 04:58:23;;;;;;;1999.90;999.90;;;5.80;91.80;;;;;;5028988;28;20033;-76
2024/01/04 05:00:48;;;;;;;1999.90;999.90;;;5.80;90.60;;;;;;5024849;28;20078;-77
2024/01/04 05:03:14;;;;;;;1999.90;999.90;;;5.80;89.90;;;;;;5025335;28;20068;-77
2024/01/04 05:05:40;;;;;;;1999.90;999.90;;;5.70;89.60;;;;;;5022715;28;20061;-76
2024/01/04 05:08:06;;;;;;;1999.90;999.90;;;5.80;89.60;;;;;;5027972;28;20025;-77
2024/01/04 05:10:33;;;;;;;1999.90;999.90;;;5.80;88.90;;;;;;5021400;28;20476;-76
2024/01/04 05:12:59;;;;;;;1999.90;999.90;;;5.80;88.60;;;;;;5026186;28;20412;-76
2024/01/04 05:15:26;;;;;;;1999.90;999.90;;;5.80;89.00;;;;;;5026930;28;20029;-76
2024/01/04 05:17:52;;;;;;;1999.90;999.90;;;5.80;89.30;;;;;;5028555;28;20033;-76
2024/01/04 05:20:18;;;;;;;1999.90;999.90;;;5.80;88.80;;;;;;5024317;28;20380;-75
2024/01/04 05:22:44;;;;;;;1999.90;999.90;;;5.80;89.40;;;;;;5034446;28;20030;-76
2024/01/04 05:25:15;;;;;;;1999.90;999.90;;;5.90;88.70;;;;;;5027242;28;20688;-77
2024/01/04 05:27:40;;;;;;;1999.90;999.90;;;5.80;88.90;;;;;;5034821;28;20475;-75
2024/01/04 05:30:07;;;;;;;1999.90;999.90;;;5.80;89.00;;;;;;5028184;28;20026;-75
2024/01/04 05:32:36;;;;;;;1999.90;999.90;;;5.80;88.90;;;;;;5028883;28;20114;-77
2024/01/04 05:35:02;;;;;;;1999.90;999.90;;;5.80;90.00;;;;;;5030541;28;20468;-76
2024/01/04 05:37:28;;;;;;;1999.90;999.90;;;5.70;90.10;;;;;;5030980;28;20482;-75
2024/01/04 05:39:54;;;;;;;1999.90;999.90;;;5.60;90.00;;;;;;5028796;28;20063;-75
2024/01/04 05:42:19;;;;;;;1999.90;999.90;;;5.60;89.90;;;;;;5028945;28;20037;-74
2024/01/04 05:44:45;;;;;;;1999.90;999.90;;;5.60;90.00;;;;;;5029982;28;20059;-75
2024/01/04 05:47:11;;;;;;;1999.90;999.90;;;5.50;90.10;;;;;;5029609;28;20030;-75
2024/01/04 05:49:37;;;;;;;1999.90;999.90;;;5.50;89.80;;;;;;5024206;28;20090;-77
2024/01/04 05:52:03;;;;;;;1999.90;999.90;;;5.50;89.70;;;;;;5031908;28;20046;-75
2024/01/04 05:54:29;;;;;;;1999.90;999.90;;;5.60;90.00;;;;;;5029232;28;20452;-77
2024/01/04 05:56:55;;;;;;;1999.90;999.90;;;5.50;89.90;;;;;;5032400;28;20064;-76
2024/01/04 05:59:24;;;;;;;1999.90;999.90;;;5.50;90.00;;;;;;5024910;28;20068;-77
2024/01/04 06:01:53;;;;;;;1999.90;999.90;;;5.40;90.00;;;;;;5025544;28;20045;-75
2024/01/04 06:04:19;;;;;;;1999.90;999.90;;;5.40;90.40;;;;;;5026742;28;20040;-77
2024/01/04 06:06:46;;;;;;;1999.90;999.90;;;5.50;90.20;;;;;;5027340;28;20037;-76
2024/01/04 06:09:12;;;;;;;1999.90;999.90;;;5.50;90.30;;;;;;5031564;28;20049;-77
2024/01/04 06:11:38;;;;;;;1999.90;999.90;;;5.50;90.30;;;;;;5025641;28;20033;-75
2024/01/04 06:14:05;;;;;;;1999.90;999.90;;;5.60;90.10;;;;;;5027893;28;20032;-76
2024/01/04 06:16:31;;;;;;;1999.90;999.90;;;5.60;90.00;;;;;;5026467;28;20038;-76
2024/01/04 06:18:58;;;;;;;1999.90;999.90;;;5.60;90.00;;;;;;5028987;28;20509;-75
2024/01/04 06:21:23;;;;;;;1999.90;999.90;;;5.60;89.90;;;;;;5032083;28;20037;-75
2024/01/04 06:23:49;;;;;;;1999.90;999.90;;;5.60;90.00;;;;;;5032598;28;20832;-76
2024/01/04 06:26:19;;;;;;;1999.90;999.90;;;5.50;90.20;;;;;;5027341;28;20088;-75
2024/01/04 06:28:48;;;;;;;1999.90;999.90;;;5.40;90.50;;;;;;5028688;28;20069;-75
2024/01/04 06:31:13;;;;;;;1999.90;999.90;;;5.40;90.60;;;;;;5028665;28;20500;-76
2024/01/04 06:33:39;;;;;;;1999.90;999.90;;;5.40;90.80;;;;;;5024133;28;20079;-76
2024/01/04 06:36:08;;;;;;;1999.90;999.90;;;5.30;90.70;;;;;;5025885;28;20130;-77
2024/01/04 06:38:37;;;;;;;1999.90;999.90;;;5.30;91.00;;;;;;5026596;28;20025;-76
2024/01/04 06:41:03;;;;;;;1999.90;999.90;;;5.20;90.80;;;;;;5025439;28;20064;-77
2024/01/04 06:43:33;;;;;;;1999.90;999.90;;;5.30;90.70;;;;;;5026406;28;20034;-76
2024/01/04 06:45:58;;;;;;;1999.90;999.90;;;5.50;90.50;;;;;;5029702;28;20037;-76
2024/01/04 06:48:24;;;;;;;1999.90;999.90;;;5.40;90.60;;;;;;5028208;28;20025;-76
2024/01/04 06:50:50;;;;;;;1999.90;999.90;;;5.30;90.80;;;;;;5025567;28;20045;-76
2024/01/04 06:53:16;;;;;;;1999.90;999.90;;;5.30;90.80;;;;;;5027486;28;20446;-75
2024/01/04 06:55:43;;;;;;;1999.90;999.90;;;5.20;91.20;;;;;;5027114;28;20036;-75
2024/01/04 06:58:09;;;;;;;1999.90;999.90;;;5.20;91.30;;;;;;5027450;28;20030;-75
2024/01/04 07:00:35;;;;;;;1999.90;999.90;;;5.10;91.60;;;;;;5025514;28;20045;-77
2024/01/04 07:03:01;;;;;;;1999.90;999.90;;;5.10;92.10;;;;;;5024147;28;20129;-75
2024/01/04 07:05:27;;;;;;;1999.90;999.90;;;5.00;92.50;;;;;;5027017;28;20144;-76
2024/01/04 07:07:52;;;;;;;1999.90;999.90;;;5.10;92.60;;;;;;5028426;28;20484;-75
2024/01/04 07:10:18;;;;;;;1999.90;999.90;;;5.20;92.40;;;;;;5027325;28;20081;-75
2024/01/04 07:12:44;;;;;;;1999.90;999.90;;;5.30;92.20;;;;;;5027154;28;20436;-75
2024/01/04 07:15:10;;;;;;;1999.90;999.90;;;5.30;92.20;;;;;;5023502;28;20029;-76
2024/01/04 07:17:36;;;;;;;1999.90;999.90;;;5.40;92.30;;;;;;5061135;28;20025;-77
2024/01/04 07:20:06;;;;;;;1999.90;999.90;;;5.40;92.50;;;;;;5031068;28;20579;-74
2024/01/04 07:22:32;;;;;;;1999.90;999.90;;;5.40;92.60;;;;;;5025566;28;20455;-77
2024/01/04 07:25:02;;;;;;;1999.90;999.90;;;5.40;92.50;;;;;;5024728;28;20033;-76
2024/01/04 07:27:28;;;;;;;1999.90;999.90;;;5.40;92.60;;;;;;5025347;28;20029;-77
2024/01/04 07:29:54;;;;;;;1999.90;999.90;;;5.50;92.60;;;;;;5024283;28;20049;-76
2024/01/04 07:32:20;;;;;;;1999.90;999.90;;;5.50;92.50;;;;;;5025538;28;20064;-77
2024/01/04 07:34:46;;;;;;;1999.90;999.90;;;5.60;92.50;;;;;;5022606;28;20026;-77
2024/01/04 07:37:12;;;;;;;1999.90;999.90;;;5.50;92.50;;;;;;5028983;28;20033;-81
2024/01/04 07:39:39;;;;;;;1999.90;999.90;;;5.50;92.50;;;;;;5026254;28;20059;-81
2024/01/04 07:42:05;;;;;;;1999.90;999.90;;;5.50;92.50;;;;;;5022441;28;20076;-78
2024/01/04 07:44:31;;;;;;;1999.90;999.90;;;5.60;92.30;;;;;;5027953;28;20500;-78
2024/01/04 07:46:56;;;;;;;1999.90;999.90;;;5.60;91.90;;;;;;5025921;28;20769;-82
2024/01/04 07:49:22;;;;;;;1999.90;999.90;;;5.50;92.00;;;;;;5023663;28;20116;-80
2024/01/04 07:51:48;;;;;;;1999.90;999.90;;;5.40;92.20;;;;;;5023466;28;20069;-81
2024/01/04 07:54:14;;;;;;;1999.90;999.90;;;5.40;92.30;;;;;;5007328;28;20061;-81
2024/01/04 07:56:39;;;;;;;1999.90;999.90;;;5.30;92.30;;;;;;5026119;28;20037;-82
2024/01/04 07:59:05;;;;;;;1999.90;999.90;;;5.30;92.30;;;;;;5023451;28;20499;-82
2024/01/04 08:01:30;;;;;;;1999.90;999.90;;;5.30;92.30;;;;;;5023058;28;20114;-81
2024/01/04 08:03:57;;;;;;;1999.90;999.90;;;5.30;92.30;;;;;;5028226;28;20021;-82
2024/01/04 08:06:23;;;;;;;1999.90;999.90;;;5.30;92.00;;;;;;5026576;28;20050;-85
2024/01/04 08:08:48;;;;;;;1999.90;999.90;;;5.40;92.00;;;;;;5023887;28;20040;-85
2024/01/04 08:11:15;;;;;;;1999.90;999.90;;;5.40;91.60;;;;;;5027093;28;20029;-86
2024/01/04 08:13:41;;;;;;;1999.90;999.90;;;5.40;91.50;;;;;;5025129;28;20033;-84
2024/01/04 08:16:07;;;;;;;1999.90;999.90;;;5.40;91.40;;;;;;5022883;28;20031;-86
2024/01/04 08:18:36;;;;;;;1999.90;999.90;;;5.40;91.30;;;;;;5030133;28;20033;-87
2024/01/04 08:21:02;;;;;;;1999.90;999.90;;;5.50;91.20;;;;;;5028395;28;20037;-85
2024/01/04 08:23:28;;;;;;;1999.90;999.90;;;5.60;91.10;;;;;;5026790;28;20037;-82
2024/01/04 08:25:55;;;;;;;1999.90;999.90;;;5.60;90.90;;;;;;5030018;28;20041;-83
2024/01/04 08:28:21;;;;;;;1999.90;999.90;;;5.60;90.80;;;;;;5027395;28;20632;-83
2024/01/04 08:30:47;;;;;;;1999.90;999.90;;;5.70;90.80;;;;;;5028290;28;20022;-82
2024/01/04 08:33:14;;;;;;;1999.90;999.90;;;5.60;90.80;;;;;;5061935;28;20033;-84
2024/01/04 08:35:40;;;;;;;1999.90;999.90;;;5.60;90.90;;;;;;5030197;28;20029;-85
2024/01/04 08:38:06;;;;;;;1999.90;999.90;;;5.60;90.70;;;;;;5025831;28;20499;-88
2024/01/04 08:40:35;;;;;;;1999.90;999.90;;;5.70;90.50;;;;;;5021767;28;20661;-84
2024/01/04 08:43:00;;;;;;;1999.90;999.90;;;5.60;90.60;;;;;;5027326;28;20044;-83
2024/01/04 08:45:26;;;;;;;1999.90;999.90;;;5.80;90.40;;;;;;5023667;28;20038;-88
2024/01/04 08:47:52;;;;;;;1999.90;999.90;;;5.80;90.20;;;;;;5027330;28;20778;-82
2024/01/04 08:50:17;;;;;;;1999.90;999.90;;;5.80;90.00;;;;;;5026942;28;20229;-82
2024/01/04 08:52:43;;;;;;;1999.90;999.90;;;5.90;90.00;;;;;;5027708;28;20026;-85
2024/01/04 08:55:09;;;;;;;1999.90;999.90;;;5.90;89.50;;;;;;5029122;28;20095;-83
2024/01/04 08:57:34;;;;;;;1999.90;999.90;;;6.00;89.00;;;;;;5026676;28;20042;-77
2024/01/04 09:00:00;;;;;;;1999.90;999.90;;;6.00;88.90;;;;;;5028418;28;20043;-83
2024/01/04 09:02:26;;;;;;;1999.90;999.90;;;6.00;88.20;;;;;;5024734;28;20045;-78
2024/01/04 09:04:52;;;;;;;1999.90;999.90;;;6.10;88.00;;;;;;5025136;28;20485;-82
2024/01/04 09:07:19;;;;;;;1999.90;999.90;;;6.10;88.00;;;;;;5031746;28;20091;-80
2024/01/04 09:09:44;;;;;;;1999.90;999.90;;;6.20;88.10;;;;;;5023781;28;20037;-87
2024/01/04 09:12:10;;;;;;;1999.90;999.90;;;6.30;87.30;;;;;;5031481;28;20053;-81
2024/01/04 09:14:36;;;;;;;1999.90;999.90;;;6.40;86.90;;;;;;5029269;28;20755;-83
2024/01/04 09:17:01;;;;;;;1999.90;999.90;;;6.40;87.10;;;;;;5030010;28;20580;-81
2024/01/04 09:19:27;;;;;;;1999.90;999.90;;;6.40;86.70;;;;;;5034971;28;20040;-79
2024/01/04 09:21:53;;;;;;;1999.90;999.90;;;6.40;87.00;;;;;;5028077;28;20041;-79
2024/01/04 09:24:20;;;;;;;1999.90;999.90;;;6.50;87.00;;;;;;5029910;28;20047;-79
2024/01/04 09:26:46;;;;;;;1999.90;999.90;;;6.50;86.20;;;;;;5025389;28;20091;-80
2024/01/04 09:29:13;;;;;;;1999.90;999.90;;;6.50;85.90;;;;;;5029290;28;20033;-79
2024/01/04 09:31:42;;;;;;;1999.90;999.90;;;6.60;85.20;;;;;;5027274;28;20492;-85
2024/01/04 09:34:08;;;;;;;1999.90;999.90;;;6.60;85.90;;;;;;5027958;28;20140;-78
2024/01/04 09:36:42;;;;;;;1999.90;999.90;;;6.70;85.70;;;;;;5024741;28;20551;-76
2024/01/04 09:39:08;;;;;;;1999.90;999.90;;;6.70;85.00;;;;;;5028292;28;20059;-78
2024/01/04 09:41:36;;;;;;;1999.90;999.90;;;6.50;84.60;;;;;;5028951;28;20457;-86
2024/01/04 09:44:05;;;;;;;1999.90;999.90;;;6.50;85.30;;;;;;5033670;28;20071;-87
2024/01/04 09:46:38;;;;;;;1999.90;999.90;;;6.50;84.30;;;;;;5026536;28;20402;-86
2024/01/04 09:49:05;;;;;;;1999.90;999.90;;;6.60;84.00;;;;;;5031130;28;20029;-84
2024/01/04 09:51:38;;;;;;;1999.90;999.90;;;6.60;83.70;;;;;;5028730;28;20042;-85
2024/01/04 09:54:09;;;;;;;1999.90;999.90;;;6.70;84.20;;;;;;5027923;28;20029;-84
2024/01/04 09:56:43;;;;;;;1999.90;999.90;;;6.80;84.40;;;;;;5041101;28;20034;-79
2024/01/04 09:59:21;;;;;;;1999.90;999.90;;;6.80;83.40;;;;;;5028514;28;20079;-81
2024/01/04 10:01:47;;;;;;;1999.90;999.90;;;6.80;83.50;;;;;;5032514;28;20033;-81
2024/01/04 10:04:16;;;;;;;1999.90;999.90;;;6.80;83.70;;;;;;5030872;28;20428;-82
2024/01/04 10:06:49;;;;;;;1999.90;999.90;;;6.70;83.90;;;;;;5029153;28;20045;-82
2024/01/04 10:09:15;;;;;;;1999.90;999.90;;;6.70;83.90;;;;;;5026348;28;20868;-83
2024/01/04 10:12:05;;;;;;;1999.90;999.90;;;6.80;83.60;;;;;;5028591;28;20028;-84
2024/01/04 10:14:32;;;;;;;1999.90;999.90;;;6.80;83.30;;;;;;5031364;28;20063;-80
2024/01/04 10:17:04;;;;;;;1999.90;999.90;;;6.90;82.60;;;;;;5027206;28;20138;-85
2024/01/04 10:19:31;;;;;;;1999.90;999.90;;;7.00;82.50;;;;;;5025481;28;20112;-83
2024/01/04 10:22:04;;;;;;;1999.90;999.90;;;7.20;82.10;;;;;;5026444;28;20037;-85
2024/01/04 10:24:41;;;;;;;1999.90;999.90;;;7.30;82.70;;;;;;5029433;28;20053;-75
2024/01/04 10:27:08;;;;;;;1999.90;999.90;;;7.30;84.50;;;;;;5029917;28;20098;-79
2024/01/04 10:29:35;;;;;;;1999.90;999.90;;;7.30;84.10;;;;;;5025710;28;21295;-85
2024/01/04 10:32:05;;;;;;;1999.90;999.90;;;7.20;83.60;;;;;;5030377;28;20133;-86
2024/01/04 10:34:35;;;;;;;1999.90;999.90;;;7.20;82.70;;;;;;5030005;28;20045;-74
2024/01/04 10:37:12;;;;;;;1999.90;999.90;;;7.10;83.40;;;;;;5026178;28;20167;-79
2024/01/04 10:39:39;;;;;;;1999.90;999.90;;;7.10;83.30;;;;;;5028757;28;20284;-81
2024/01/04 10:42:05;;;;;;;1999.90;999.90;;;7.10;82.80;;;;;;5030626;28;20044;-82
2024/01/04 10:44:35;;;;;;;1999.90;999.90;;;7.30;82.00;;;;;;5033585;28;20451;-81
2024/01/04 10:47:03;;;;;;;1999.90;999.90;;;7.40;82.50;;;;;;5031571;28;20037;-79
2024/01/04 10:49:29;;;;;;;1999.90;999.90;;;7.50;82.90;;;;;;5032584;28;20037;-77
2024/01/04 10:52:01;;;;;;;1999.90;999.90;;;7.50;81.20;;;;;;5024658;28;20033;-77
2024/01/04 10:54:37;;;;;;;1999.90;999.90;;;7.50;81.30;;;;;;5030461;28;20028;-78
2024/01/04 10:57:06;;;;;;;1999.90;999.90;;;7.70;80.90;;;;;;5029562;28;20091;-79
2024/01/04 10:59:33;;;;;;;1999.90;999.90;;;8.00;79.40;;;;;;5034378;28;20079;-78
2024/01/04 11:02:00;;;;;;;1999.90;999.90;;;8.10;78.90;;;;;;5029046;28;20045;-83
2024/01/04 11:04:27;;;;;;;1999.90;999.90;;;8.20;78.20;;;;;;5027737;28;20076;-80
2024/01/04 11:06:53;;;;;;;1999.90;999.90;;;8.20;77.80;;;;;;5031185;28;20049;-82
2024/01/04 11:09:20;;;;;;;1999.90;999.90;;;7.90;77.90;;;;;;5027866;28;20088;-82
2024/01/04 11:11:49;;;;;;;1999.90;999.90;;;8.00;77.60;;;;;;5028167;28;20022;-77
2024/01/04 11:14:15;;;;;;;1999.90;999.90;;;8.00;77.20;;;;;;5028681;28;20064;-77
2024/01/04 11:17:08;;;;;;;1999.90;999.90;;;8.10;77.10;;;;;;5026964;28;20526;-80
2024/01/04 11:20:05;;;;;;;1999.90;999.90;;;8.20;77.30;;;;;;5024551;28;20029;-79
2024/01/04 11:22:42;;;;;;;1999.90;999.90;;;8.20;76.30;;;;;;5023590;28;20033;-86
2024/01/04 11:25:28;;;;;;;1999.90;999.90;;;8.50;76.20;;;;;;5026901;28;20800;-81
2024/01/04 11:27:55;;;;;;;1999.90;999.90;;;8.40;73.90;;;;;;5028158;28;20116;-81
2024/01/04 11:30:21;;;;;;;1999.90;999.90;;;8.60;73.60;;;;;;5030136;28;20033;-81
2024/01/04 11:32:50;;;;;;;1999.90;999.90;;;8.90;74.10;;;;;;5030238;28;20026;-81
2024/01/04 11:35:16;;;;;;;1999.90;999.90;;;8.90;72.80;;;;;;5024898;28;20059;-84
2024/01/04 11:37:49;;;;;;;1999.90;999.90;;;8.70;73.60;;;;;;5028262;28;20044;-83
2024/01/04 11:40:26;;;;;;;1999.90;999.90;;;8.40;73.40;;;;;;5026253;28;20972;-79
2024/01/04 11:42:52;;;;;;;1999.90;999.90;;;8.20;74.40;;;;;;5026912;28;20042;-79
2024/01/04 11:45:19;;;;;;;1999.90;999.90;;;8.10;75.30;;;;;;5026480;28;20046;-79
2024/01/04 11:47:48;;;;;;;1999.90;999.90;;;7.90;75.40;;;;;;5025047;28;20043;-79
2024/01/04 11:50:16;;;;;;;1999.90;999.90;;;7.90;76.20;;;;;;5022717;28;20408;-78
2024/01/04 11:52:43;;;;;;;1999.90;999.90;;;7.90;75.80;;;;;;5027304;28;20753;-79
2024/01/04 11:55:09;;;;;;;1999.90;999.90;;;7.90;75.80;;;;;;5027549;28;20037;-77
2024/01/04 11:57:35;;;;;;;1999.90;999.90;;;7.70;76.20;;;;;;5027314;28;20037;-79
2024/01/04 12:00:12;;;;;;;1999.90;999.90;;;7.80;76.40;;;;;;5029514;28;20061;-80
2024/01/04 12:02:38;;;;;;;1999.90;999.90;;;7.80;76.20;;;;;;5022860;28;20044;-81
2024/01/04 12:05:05;;;;;;;1999.90;999.90;;;7.80;76.50;;;;;;5024153;28;20053;-79
2024/01/04 12:07:34;;;;;;;1999.90;999.90;;;7.90;77.10;;;;;;5029299;28;20033;-80